Flight Track Log - Related Links

Times and Time Zones

All times are in EDT time to prevent confusion due to time zone crossing. See the C-FTOH flight status page for this flight to view local times or setup timezone preferences in your user account.

Time Position Orientation Groundspeed Altitude Reporting Facility
EDT Latitude Longitude Course Direction KTS MPH feet Rate Location/Type
Sun 06:12:00 AM 45.9885 -71.4667 180° South  Level FlightAware Approximate
Sun 06:13:00 AM 45.8745 -71.4667 180° South  Level FlightAware Approximate
Sun 06:14:00 AM 45.7680 -71.5231 202° Southwest  Level FlightAware Approximate
Sun 06:15:00 AM 45.6627 -71.5854 199° South  Level FlightAware Approximate
Sun 06:16:00 AM 45.5551 -71.6392 199° South  Level FlightAware Approximate
Sun 06:17:00 AM 45.4507 -71.7036 208° Southwest  Level FlightAware Approximate
Sun 06:18:00 AM 45.3429 -71.7554 197° South  Level FlightAware Approximate
Sun 06:19:00 AM 45.2436 -71.8324 210° Southwest  Level FlightAware Approximate
Sun 06:20:00 AM 45.1356 -71.8849 199° South  Level Estimated
Sun 06:21:00 AM 45.0276 -71.9372 199° South  Level Estimated
Sun 06:22:00 AM 44.9196 -71.9893 199° South  Level Estimated
Sun 06:23:00 AM 44.8115 -72.0412 199° South  Level Estimated
Sun 06:24:00 AM 44.7034 -72.0929 199° South  Level Estimated
Sun 06:25:00 AM 44.5965 -72.1487 200° South  Level FlightAware Approximate
Sun 06:25:48 AM 45.2590 -71.9990 200° South 419 482 33,100  Level FlightAware ADS-B
Sun 06:26:00 AM 44.4895 -72.2043 200° South  Level FlightAware Approximate
Sun 06:26:28 AM 45.1860 -72.0290 196° South 416 479 34,000  Level FlightAware ADS-B
Sun 06:27:13 AM 45.1070 -72.0620 196° South 415 478 34,600 776 Climbing FlightAware ADS-B
Sun 06:27:53 AM 45.0370 -72.0910 196° South 416 479 35,100 758 Climbing FlightAware ADS-B
Sun 06:28:48 AM 44.9360 -72.1320 196° South 416 479 35,800 491 Climbing FlightAware ADS-B
Sun 06:29:43 AM 44.8350 -72.1740 196° South 418 481 36,000 126 Climbing FlightAware ADS-B
Sun 06:30:23 AM 44.7550 -72.2060 196° South 417 480 36,000  Level FlightAware ADS-B
Sun 06:31:08 AM 44.6680 -72.2420 196° South 416 479 36,000  Level FlightAware ADS-B
Sun 06:31:48 AM 44.5920 -72.2730 196° South 417 480 36,000  Level FlightAware ADS-B
Sun 06:32:33 AM 44.5100 -72.3050 196° South 418 481 36,000  Level FlightAware ADS-B
Sun 06:33:13 AM 44.4370 -72.3350 196° South 418 481 36,000  Level FlightAware ADS-B
Sun 06:33:58 AM 44.3500 -72.3700 196° South 418 481 36,000  Level FlightAware ADS-B
Sun 06:34:38 AM 44.2770 -72.3990 196° South 418 481 36,000  Level FlightAware ADS-B
Sun 06:35:18 AM 44.2030 -72.4290 196° South 419 482 36,000  Level FlightAware ADS-B
Sun 06:36:03 AM 44.1210 -72.4620 196° South 421 484 36,000  Level FlightAware ADS-B
Sun 06:36:58 AM 44.0210 -72.5010 196° South 422 486 36,000  Level FlightAware ADS-B
Sun 06:37:48 AM 43.9260 -72.5390 196° South 422 486 36,000  Level FlightAware ADS-B
Sun 06:38:58 AM 43.8000 -72.5880 196° South 417 480 36,000  Level FlightAware ADS-B
Sun 06:41:33 AM 43.5130 -72.7000 196° South 414 476 36,000  Level FlightAware ADS-B
Sun 06:42:24 AM 43.4233 -72.7375 196° South 420 483 36,000  Level Boston Center
Sun 06:48:13 AM 42.7830 -72.9820 196° South 414 476 36,000  Level FlightAware ADS-B
Sun 06:48:43 AM 42.7260 -73.0040 196° South 414 476 36,000  Level FlightAware ADS-B
Sun 06:49:33 AM 42.6330 -73.0390 195° South 415 478 36,000  Level FlightAware ADS-B
Sun 06:50:18 AM 42.5530 -73.0690 195° South 416 479 36,000  Level FlightAware ADS-B
Sun 06:51:13 AM 42.4410 -73.1110 195° South 417 480 36,000  Level FlightAware ADS-B
Sun 06:51:53 AM 42.3660 -73.1390 195° South 417 480 36,000  Level FlightAware ADS-B
Sun 06:52:38 AM 42.2810 -73.1720 196° South 417 480 36,000  Level FlightAware ADS-B
Sun 06:53:18 AM 42.2090 -73.1980 195° South 417 480 36,000  Level FlightAware ADS-B
Sun 06:53:58 AM 42.1360 -73.2380 202° Southwest 411 473 36,000  Level FlightAware ADS-B
Sun 06:54:43 AM 42.0640 -73.2880 207° Southwest 409 471 36,000  Level FlightAware ADS-B
Sun 06:55:23 AM 41.9950 -73.3360 207° Southwest 409 471 36,000  Level FlightAware ADS-B
Sun 06:56:08 AM 41.9170 -73.3890 207° Southwest 407 468 36,000  Level FlightAware ADS-B
Sun 06:56:48 AM 41.8500 -73.4360 208° Southwest 406 467 36,000  Level FlightAware ADS-B
Sun 06:57:33 AM 41.7760 -73.4860 207° Southwest 404 465 36,000  Level FlightAware ADS-B
Sun 06:58:13 AM 41.7100 -73.5310 207° Southwest 402 463 36,000  Level FlightAware ADS-B
Sun 06:58:53 AM 41.6440 -73.5760 207° Southwest 403 464 36,000  Level FlightAware ADS-B
Sun 06:59:38 AM 41.5680 -73.6280 207° Southwest 402 463 36,000  Level FlightAware ADS-B
Sun 07:00:18 AM 41.5020 -73.6730 207° Southwest 402 463 36,000  Level FlightAware ADS-B
Sun 07:01:03 AM 41.4310 -73.7210 207° Southwest 402 463 36,000  Level FlightAware ADS-B
Sun 07:01:43 AM 41.3630 -73.7670 207° Southwest 403 464 36,000  Level FlightAware ADS-B
Sun 07:02:11 AM 41.3117 -73.8014 207° Southwest 405 466 36,000  Level FlightAware ADS-B
Sun 07:02:41 AM 41.2611 -73.8354 207° Southwest 406 467 36,000  Level FlightAware ADS-B
Sun 07:03:48 AM 41.1520 -73.9090 207° Southwest 406 467 36,000  Level FlightAware ADS-B
Sun 07:03:55 AM 41.1369 -73.9187 206° Southwest 406 467 36,000  Level FlightAware ADS-B
Sun 07:04:30 AM 41.0783 -73.9579 207° Southwest 408 470 36,000  Level FlightAware ADS-B
Sun 07:05:13 AM 41.0090 -74.0040 207° Southwest 408 470 36,000  Level FlightAware ADS-B
Sun 07:05:19 AM 40.9960 -74.0128 207° Southwest 409 471 36,000  Level FlightAware ADS-B
Sun 07:05:50 AM 40.9440 -74.0475 207° Southwest 410 472 36,000  Level FlightAware ADS-B
Sun 07:06:38 AM 40.8650 -74.1000 207° Southwest 408 470 36,000  Level FlightAware ADS-B
Sun 07:07:13 AM 40.8025 -74.1413 207° Southwest 409 471 36,000  Level FlightAware ADS-B
Sun 07:07:58 AM 40.7300 -74.1890 207° Southwest 407 468 36,000  Level FlightAware ADS-B
Sun 07:08:43 AM 40.6560 -74.2380 207° Southwest 407 468 36,000  Level FlightAware ADS-B
Sun 07:09:23 AM 40.5860 -74.2740 201° Southwest 412 474 36,000  Level FlightAware ADS-B
Sun 07:10:03 AM 40.5120 -74.3010 196° South 412 474 36,000  Level FlightAware ADS-B
Sun 07:10:48 AM 40.4280 -74.3320 196° South 410 472 36,000  Level FlightAware ADS-B
Sun 07:11:28 AM 40.3540 -74.3590 196° South 410 472 36,000  Level FlightAware ADS-B
Sun 07:11:42 AM 40.3271 -74.3689 196° South 410 472 36,000  Level FlightAware ADS-B
Sun 07:12:13 AM 40.2760 -74.3940 201° Southwest 403 464 36,000  Level FlightAware ADS-B
Sun 07:12:17 AM 40.2664 -74.4013 210° Southwest 405 466 36,000  Level FlightAware ADS-B
Sun 07:12:53 AM 40.2120 -74.4420 210° Southwest 402 463 36,000  Level FlightAware ADS-B
Sun 07:13:33 AM 40.1470 -74.4910 210° Southwest 403 464 36,000  Level FlightAware ADS-B
Sun 07:14:18 AM 40.0720 -74.5460 209° Southwest 405 466 36,000  Level FlightAware ADS-B
Sun 07:14:58 AM 40.0090 -74.5940 210° Southwest 406 467 36,000  Level FlightAware ADS-B
Sun 07:15:43 AM 39.9330 -74.6500 209° Southwest 410 472 36,000  Level FlightAware ADS-B
Sun 07:16:23 AM 39.8670 -74.6980 209° Southwest 412 474 36,000  Level FlightAware ADS-B
Sun 07:17:08 AM 39.7940 -74.7520 210° Southwest 414 476 36,000  Level FlightAware ADS-B
Sun 07:17:48 AM 39.7270 -74.8010 209° Southwest 416 479 36,000  Level FlightAware ADS-B
Sun 07:18:28 AM 39.6580 -74.8510 209° Southwest 416 479 36,000  Level FlightAware ADS-B
Sun 07:19:13 AM 39.5820 -74.9070 210° Southwest 414 476 36,000  Level FlightAware ADS-B
Sun 07:19:48 AM 39.5310 -74.9440 209° Southwest 415 478 36,000  Level FlightAware ADS-B
Sun 07:20:38 AM 39.4510 -75.0020 209° Southwest 408 470 36,000  Level FlightAware ADS-B
Sun 07:21:18 AM 39.3820 -75.0520 209° Southwest 409 471 36,000  Level FlightAware ADS-B
Sun 07:22:03 AM 39.2970 -75.1110 208° Southwest 419 482 36,000  Level FlightAware ADS-B
Sun 07:22:43 AM 39.2210 -75.1450 199° South 422 486 36,000  Level FlightAware ADS-B
Sun 07:23:23 AM 39.1480 -75.1750 198° South 422 486 36,000  Level FlightAware ADS-B
Sun 07:24:08 AM 39.0670 -75.2090 198° South 420 483 36,000  Level FlightAware ADS-B
Sun 07:24:48 AM 38.9930 -75.2410 199° South 420 483 36,000  Level FlightAware ADS-B
Sun 07:25:33 AM 38.9110 -75.2750 198° South 420 483 36,000  Level FlightAware ADS-B
Sun 07:26:13 AM 38.8380 -75.3060 198° South 419 482 36,000  Level FlightAware ADS-B
Sun 07:26:53 AM 38.7600 -75.3380 198° South 419 482 36,000  Level FlightAware ADS-B
Sun 07:27:38 AM 38.6800 -75.3710 198° South 418 481 36,000  Level FlightAware ADS-B
Sun 07:28:18 AM 38.6040 -75.4030 198° South 419 482 36,000  Level FlightAware ADS-B
Sun 07:28:58 AM 38.5360 -75.4320 198° South 420 483 36,000  Level FlightAware ADS-B
Sun 07:29:38 AM 38.4650 -75.4610 198° South 421 484 36,000  Level FlightAware ADS-B
Sun 07:30:38 AM 38.3490 -75.5040 196° South 420 483 36,000  Level FlightAware ADS-B
Sun 07:31:23 AM 38.2650 -75.5340 196° South 421 484 36,000  Level FlightAware ADS-B
Sun 07:32:03 AM 38.1930 -75.5590 195° South 422 486 36,000  Level FlightAware ADS-B
Sun 07:32:43 AM 38.1180 -75.5870 196° South 415 478 36,000  Level FlightAware ADS-B
Sun 07:36:03 AM 37.7380 -75.7230 196° South 421 484 36,000  Level FlightAware ADS-B
Sun 07:36:38 AM 37.6760 -75.7450 196° South 421 484 36,000  Level FlightAware ADS-B
Sun 07:37:23 AM 37.5910 -75.7750 196° South 422 486 36,000  Level FlightAware ADS-B
Sun 07:38:03 AM 37.5020 -75.8070 196° South 422 486 36,000  Level FlightAware ADS-B
Sun 07:38:38 AM 37.4430 -75.8280 196° South 431 496 36,000  Level FlightAware ADS-B
Sun 07:39:38 AM 37.3300 -75.8670 195° South 431 496 36,000  Level FlightAware ADS-B
Sun 07:40:23 AM 37.2460 -75.8970 196° South 36,000  Level FlightAware ADS-B
Sun 07:41:23 AM 37.1290 -75.9380 196° South 433 498 36,000  Level FlightAware ADS-B
Sun 07:42:08 AM 37.0400 -75.9690 196° South 434 499 36,000  Level FlightAware ADS-B
Sun 07:43:13 AM 36.9190 -76.0100 195° South 435 501 36,000  Level FlightAware ADS-B
Sun 07:43:53 AM 36.8530 -76.0320 195° South 435 501 36,000  Level FlightAware ADS-B
Sun 07:44:33 AM 36.7870 -76.0550 196° South 435 501 36,000  Level FlightAware ADS-B
Sun 07:45:23 AM 36.7050 -76.0820 195° South 435 501 36,000  Level FlightAware ADS-B
Sun 07:46:03 AM 36.6390 -76.1040 195° South 435 501 36,000  Level FlightAware ADS-B
Sun 07:46:43 AM 36.5720 -76.1260 195° South 435 501 36,000  Level FlightAware ADS-B
Sun 07:47:23 AM 36.5060 -76.1480 195° South 435 501 36,000  Level FlightAware ADS-B
Sun 07:48:03 AM 36.4400 -76.1700 195° South 435 501 36,000  Level FlightAware ADS-B
Sun 07:48:43 AM 36.3740 -76.1920 195° South 435 501 36,000  Level FlightAware ADS-B
Sun 07:49:33 AM 36.2920 -76.2200 195° South 435 501 36,000  Level FlightAware ADS-B
Sun 07:50:13 AM 36.2250 -76.2420 195° South 435 501 36,000  Level FlightAware ADS-B
Sun 07:50:53 AM 36.1590 -76.2640 195° South 435 501 36,000  Level FlightAware ADS-B
Sun 07:51:33 AM 36.0930 -76.2860 195° South 435 501 36,000  Level FlightAware ADS-B
Sun 07:52:23 AM 36.0110 -76.3130 195° South 435 501 36,000  Level FlightAware ADS-B
Sun 07:52:47 AM 35.7922 -76.3986 195° South 435 501 36,000  Level Washington Center
Sun 07:53:47 AM 35.6731 -76.4383 195° South 440 506 36,000 -50 Level Washington Center
Sun 07:54:47 AM 35.5539 -76.4753 194° South 440 506 35,900  Descending Washington Center
Sun 07:55:47 AM 35.4347 -76.5150 195° South 440 506 36,000 50 Climbing Washington Center
Sun 07:56:47 AM 35.3069 -76.5617 197° South 440 506 36,000  Level Washington Center
Sun 07:57:47 AM 35.1900 -76.5986 194° South 440 506 36,000  Level Washington Center
Sun 07:58:47 AM 35.0853 -76.6353 196° South 440 506 36,000 -50 Level Washington Center
Sun 07:59:47 AM 34.9703 -76.6744 196° South 435 501 35,900  Descending Washington Center
Sun 08:00:47 AM 34.8572 -76.7133 196° South 435 501 36,000 50 Climbing Washington Center
Sun 08:01:47 AM 34.7400 -76.7472 193° South 435 501 36,000  Level Washington Center
Sun 08:02:47 AM 34.6269 -76.7886 197° South 435 501 36,000 -50 Level Washington Center
Sun 08:03:47 AM 34.5119 -76.8222 194° South 435 501 35,900 -50 Descending Washington Center
Sun 08:04:47 AM 34.3944 -76.8631 196° South 435 501 35,900 50 Level Washington Center
Sun 08:05:47 AM 34.2794 -76.8989 194° South 435 501 36,000 50 Climbing Washington Center
Sun 08:06:47 AM 34.1622 -76.9372 195° South 435 501 36,000  Level Washington Center
Sun 08:07:47 AM 34.0469 -76.9706 193° South 435 501 36,000  Level Washington Center
Sun 08:08:47 AM 33.9319 -77.0086 195° South 440 506 36,000  Level Washington Center
Sun 08:09:47 AM 33.8125 -77.0467 195° South 440 506 36,000  Level Washington Center
Sun 08:10:47 AM 33.6953 -77.0869 196° South 440 506 36,000  Level Washington Center
Sun 08:13:15 AM 33.3900 -77.1839 195° South 431 496 36,000  Level Jacksonville Center
Sun 08:14:15 AM 33.2953 -77.2122 194° South 438 504 36,000  Level Jacksonville Center
Sun 08:15:15 AM 33.1678 -77.2503 194° South 438 504 36,000  Level Jacksonville Center
Sun 08:16:15 AM 33.0506 -77.2897 196° South 438 504 36,000  Level Jacksonville Center
Sun 08:17:15 AM 32.9353 -77.3267 195° South 438 504 36,000  Level Jacksonville Center
Sun 08:18:15 AM 32.8181 -77.3636 195° South 438 504 36,000  Level Jacksonville Center
Sun 08:19:15 AM 32.7025 -77.3978 194° South 433 498 36,000  Level Jacksonville Center
Sun 08:20:15 AM 32.5853 -77.4319 194° South 428 493 36,000 -50 Level Jacksonville Center
Sun 08:21:15 AM 32.4719 -77.4658 194° South 428 493 35,900  Descending Jacksonville Center
Sun 08:22:15 AM 32.3567 -77.5047 196° South 428 493 36,000 50 Climbing Jacksonville Center
Sun 08:23:15 AM 32.2453 -77.5383 194° South 428 493 36,000  Level Jacksonville Center
Sun 08:24:15 AM 32.1300 -77.5744 195° South 428 493 36,000  Level Jacksonville Center
Sun 08:25:15 AM 32.0125 -77.6106 195° South 428 493 36,000  Level Jacksonville Center
Sun 08:26:15 AM 31.8992 -77.6464 195° South 433 498 36,000  Level Jacksonville Center
Sun 08:27:15 AM 31.7817 -77.6825 195° South 433 498 36,000  Level Jacksonville Center
Sun 08:28:15 AM 31.6642 -77.7136 193° South 433 498 36,000  Level Jacksonville Center
Sun 08:29:16 AM 31.5467 -77.7492 194° South 433 498 36,000  Level Jacksonville Center
Sun 08:30:15 AM 31.4272 -77.7925 197° South 433 498 36,000 -35 Level Jacksonville Center
Sun 08:32:08 AM 31.2208 -77.8664 197° South 415 478 35,900  Descending Miami Center
Sun 08:33:08 AM 31.0997 -77.8992 193° South 432 497 36,000 50 Climbing Miami Center
Sun 08:34:08 AM 30.9786 -77.9342 194° South 441 507 36,000  Level Miami Center
Sun 08:35:08 AM 30.8617 -77.9692 194° South 435 501 36,000  Level Miami Center
Sun 08:36:08 AM 30.7425 -78.0042 194° South 435 501 36,000  Level Miami Center
Sun 08:37:08 AM 30.6278 -78.0389 195° South 447 514 36,000  Level Miami Center
Sun 08:38:08 AM 30.5086 -78.0714 193° South 436 502 36,000  Level Miami Center
Sun 08:39:08 AM 30.3917 -78.1036 193° South 436 502 36,000  Level Miami Center
Sun 08:40:08 AM 30.2686 -78.1214 187° South 434 499 36,000  Level Miami Center
Sun 08:41:08 AM 30.1536 -78.1417 189° South 439 505 36,000 -50 Level Miami Center
Sun 08:42:08 AM 30.0306 -78.1594 187° South 447 514 35,900  Descending Miami Center
Sun 08:43:08 AM 29.9136 -78.1892 192° South 440 506 36,000 50 Climbing Miami Center
Sun 08:44:08 AM 29.7967 -78.2069 188° South 445 512 36,000  Level Miami Center
Sun 08:45:08 AM 29.6692 -78.2172 184° South 440 506 36,000  Level Miami Center
Sun 08:46:08 AM 29.5503 -78.2394 189° South 440 506 36,000  Level Miami Center
Sun 08:47:08 AM 29.4353 -78.2594 189° South 448 516 36,000  Level Miami Center
Sun 08:48:08 AM 29.3142 -78.2769 187° South 448 516 36,000  Level Miami Center
Sun 08:49:08 AM 29.1969 -78.2969 188° South 441 507 36,000  Level Miami Center
Sun 08:50:08 AM 29.0781 -78.3144 187° South 446 513 36,000  Level Miami Center
Sun 08:51:08 AM 28.9567 -78.3317 187° South 438 504 36,000  Level Miami Center
Sun 08:57:08 AM 28.2400 -78.4420 187° South 428 493 36,000  Level FlightAware ADS-B
Sun 08:57:53 AM 28.1590 -78.4530 187° South 428 493 36,000  Level FlightAware ADS-B
Sun 08:58:33 AM 28.0650 -78.4690 189° South 429 494 36,000  Level FlightAware ADS-B
Sun 08:59:08 AM 27.9960 -78.4790 187° South 430 495 36,000  Level FlightAware ADS-B
Sun 09:00:03 AM 27.8920 -78.4950 188° South 422 486 36,000  Level FlightAware ADS-B
Sun 09:00:43 AM 27.8150 -78.5070 188° South 422 486 36,000  Level FlightAware ADS-B
Sun 09:01:18 AM 27.7410 -78.5180 187° South 421 484 36,000  Level FlightAware ADS-B
Sun 09:02:08 AM 27.6420 -78.5330 188° South 420 483 36,000  Level FlightAware ADS-B
Sun 09:02:48 AM 27.5640 -78.5450 188° South 420 483 36,000  Level FlightAware ADS-B
Sun 09:03:33 AM 27.4770 -78.5590 188° South 421 484 36,000  Level FlightAware ADS-B
Sun 09:04:08 AM 27.4070 -78.5700 188° South 421 484 36,000  Level FlightAware ADS-B
Sun 09:04:53 AM 27.3160 -78.5830 187° South 428 493 36,000  Level FlightAware ADS-B
Sun 09:05:38 AM 27.2280 -78.5970 188° South 428 493 36,000  Level FlightAware ADS-B
Sun 09:06:13 AM 27.1600 -78.6070 187° South 421 484 36,000  Level FlightAware ADS-B
Sun 09:07:03 AM 27.0620 -78.6220 188° South 420 483 36,000  Level FlightAware ADS-B
Sun 09:07:43 AM 26.9830 -78.6330 187° South 419 482 36,000  Level FlightAware ADS-B
Sun 09:08:23 AM 26.9040 -78.6450 188° South 420 483 36,000  Level FlightAware ADS-B
Sun 09:09:08 AM 26.8220 -78.6580 188° South 420 483 36,000  Level FlightAware ADS-B
Sun 09:09:43 AM 26.7470 -78.6690 187° South 419 482 36,000  Level FlightAware ADS-B
Sun 09:10:28 AM 26.6590 -78.6820 188° South 418 481 36,000  Level FlightAware ADS-B
Sun 09:11:03 AM 26.5890 -78.6930 188° South 420 483 36,000  Level FlightAware ADS-B
Sun 09:11:53 AM 26.4930 -78.7070 187° South 420 483 36,000  Level FlightAware ADS-B
Sun 09:12:38 AM 26.4040 -78.7200 187° South 422 486 36,000  Level FlightAware ADS-B
Sun 09:13:18 AM 26.3220 -78.7320 187° South 426 490 36,000  Level FlightAware ADS-B
Sun 09:13:58 AM 26.2430 -78.7440 188° South 435 501 36,000  Level FlightAware ADS-B
Sun 09:14:43 AM 26.1530 -78.7570 187° South 437 503 36,000  Level FlightAware ADS-B
Sun 09:15:23 AM 26.0730 -78.7690 188° South 437 503 36,000  Level FlightAware ADS-B
Sun 09:15:43 AM 26.0320 -78.7750 187° South 436 502 36,000  Level FlightAware ADS-B
Sun 09:16:33 AM 25.9340 -78.7900 188° South 438 504 36,000  Level FlightAware ADS-B
Sun 09:17:28 AM 25.8230 -78.8060 187° South 437 503 36,000  Level FlightAware ADS-B
Sun 09:18:08 AM 25.7420 -78.8180 188° South 436 502 36,000  Level FlightAware ADS-B
Sun 09:18:53 AM 25.6510 -78.8310 187° South 437 503 36,000  Level FlightAware ADS-B
Sun 09:19:28 AM 25.5800 -78.8420 188° South 437 503 36,000  Level FlightAware ADS-B
Sun 09:20:18 AM 25.4810 -78.8560 187° South 439 505 36,000  Level FlightAware ADS-B
Sun 09:20:58 AM 25.4010 -78.8680 188° South 439 505 36,000  Level FlightAware ADS-B
Sun 09:21:43 AM 25.3120 -78.8810 188° South 440 506 36,000  Level FlightAware ADS-B
Sun 09:22:23 AM 25.2270 -78.8930 187° South 441 507 36,000 -400 Level FlightAware ADS-B
Sun 09:22:58 AM 25.1570 -78.9110 193° South 427 491 35,500 -918 Descending FlightAware ADS-B
Sun 09:23:48 AM 25.0640 -78.9470 199° South 428 493 34,700 -971 Descending FlightAware ADS-B
Sun 09:24:43 AM 24.9610 -78.9870 199° South 429 494 33,800 -947 Descending FlightAware ADS-B
Sun 09:25:23 AM 24.8860 -79.0150 199° South 425 489 33,200 -918 Descending FlightAware ADS-B
Sun 09:26:08 AM 24.8030 -79.0470 199° South 427 491 32,500 -600 Descending FlightAware ADS-B
Sun 09:26:43 AM 24.7440 -79.0690 199° South 429 494 32,400 -975 Descending FlightAware ADS-B
Sun 09:27:28 AM 24.6460 -79.1070 199° South 438 504 31,200 -933 Descending FlightAware ADS-B
Sun 09:28:13 AM 24.5670 -79.1370 199° South 430 495 31,000 -141 Descending FlightAware ADS-B
Sun 09:28:53 AM 24.4830 -79.1690 199° South 428 493 31,000  Level FlightAware ADS-B
Sun 09:29:38 AM 24.3990 -79.2010 199° South 428 493 31,000  Level FlightAware ADS-B
Sun 09:30:18 AM 24.3220 -79.2300 199° South 427 491 31,000  Level FlightAware ADS-B
Sun 09:30:58 AM 24.2450 -79.2590 199° South 427 491 31,000  Level FlightAware ADS-B
Sun 09:31:58 AM 24.1350 -79.3010 199° South 427 491 31,000  Level FlightAware ADS-B
Sun 09:32:48 AM 24.0350 -79.3380 199° South 427 491 31,000  Level FlightAware ADS-B
Sun 09:33:48 AM 23.9380 -79.3750 199° South 427 491 31,000 -343 Level FlightAware ADS-B
Sun 09:34:33 AM 23.8430 -79.4110 199° South 428 493 30,400 -1,440 Descending FlightAware ADS-B
Sun 09:35:28 AM 23.7350 -79.4510 199° South 425 489 28,600 -1,333 Descending FlightAware ADS-B
Sun 09:36:03 AM 23.6850 -79.4700 199° South 412 474 28,400 -1,516 Descending FlightAware ADS-B
Sun 09:37:03 AM 23.5770 -79.5100 199° South 392 451 26,200 -1,320 Descending FlightAware ADS-B
Sun 09:37:43 AM 23.5190 -79.5320 199° South 392 451 26,200  Level FlightAware ADS-B
Sun 09:38:23 AM 23.4610 -79.5540 199° South 392 451 26,200  Level FlightAware ADS-B
Sun 09:39:03 AM 23.4020 -79.5750 198° South 392 451 26,200  Level FlightAware ADS-B
Sun 09:39:53 AM 23.3290 -79.6030 199° South 392 451 26,200  Level FlightAware ADS-B
Sun 09:40:33 AM 23.2710 -79.6250 199° South 392 451 26,200  Level FlightAware ADS-B
Sun 09:43:00 AM 23.0167 -79.7250 200° South  Level FlightAware Approximate
Sun 09:44:00 AM 22.9129 -79.7656 200° South  Level FlightAware Approximate
Sun 09:45:00 AM 22.8091 -79.8063 200° South  Level FlightAware Approximate
Sun 09:46:00 AM 22.7053 -79.8468 200° South  Level FlightAware Approximate
Sun 09:47:00 AM 22.6015 -79.8873 200° South  Level FlightAware Approximate
Sun 09:48:00 AM 22.4976 -79.9278 200° South  Level FlightAware Approximate
Sun 09:49:00 AM 22.4833 -79.9333 North  Level FlightAware Approximate
Sun 09:50:00 AM 22.4922 -79.9436 North  Level Estimated
Sun 09:51:00 AM 22.4922 -79.9436 North  Level Estimated
Sun 09:52:00 AM 22.4922 -79.9436 North  Level Estimated
Sun 09:53:00 AM 22.4922 -79.9436 North  Level Estimated
Sun 09:54:00 AM 22.4922 -79.9436 North  Level Estimated
Sun 09:55:00 AM 22.4922 -79.9436 North  Level Estimated
Sun 09:56:00 AM 22.4922 -79.9436 North  Level Estimated
Sun 09:57:00 AM 22.4922 -79.9436 North  Level Estimated
Sun 09:58:00 AM 22.4922 -79.9436 North  Level Estimated
Sun 09:59:00 AM 22.4922 -79.9436 North  Level Estimated
Sun 10:00:00 AM 22.4922 -79.9436 North  Level Estimated
Sun 10:01:00 AM 22.4922 -79.9436 North  Level Estimated
Sun 10:02:00 AM 22.4922 -79.9436 North  Level Estimated
Sun 10:03:00 AM 22.4922 -79.9436 North  Level Estimated
Sun 10:04:00 AM 22.4922 -79.9436 North  Level Estimated
Sun 10:05:00 AM 22.4922 -79.9436 North  Level Estimated
Sun 10:06:00 AM 22.4922 -79.9436 North  Level Estimated
Sun 10:07:00 AM 22.4922 -79.9436 North  Level Estimated
Sun 10:08:00 AM 22.4922 -79.9436 North  Level Estimated
Sun 10:09:00 AM 22.4922 -79.9436 North  Level Estimated
Sun 10:10:00 AM 22.4922 -79.9436 North  Level Estimated
Sun 10:11:00 AM 22.4922 -79.9436 North  Level Estimated

Login

Don't have an account? Register now (free) for customized features, flight alerts, and more!